• Join FlightAware (Why Join?)
  • Login
  • US Flag 
04:17AM EDT


 

Airport Tracker/Info


-or-


 

Live Flight TrackerFlight Track Log ✈ SWA1867 ✈ 25-May-2014 ✈ KPHX - KSAT

Flight Track Log - Related Links

Times and Time Zones

All times are in EDT time to prevent confusion due to time zone crossing. See the SWA1867 flight status page for this flight to view local times or setup timezone preferences in your user account.

Time Position Orientation Groundspeed Altitude Reporting Facility
EDT Latitude Longitude Course Direction KTS MPH feet Rate Location/Type
02:01PM 33.4333 -112.0333 239° Southwest 179 206 2,100  Level Phoenix TRACON
02:02PM 33.4167 -112.0667 239° Southwest 179 206 2,800 1,440 Climbing Phoenix TRACON
02:03PM 33.4000 -112.1333 253° West 250 288 4,300 1,920 Climbing Phoenix TRACON
02:04PM 33.3769 -112.1839 241° Southwest 269 310 6,200 2,160 Climbing Albuquerque Center
02:05PM 33.2975 -112.1733 174° South 292 336 8,100 1,800 Climbing Albuquerque Center
02:06PM 33.2350 -112.1183 144° Southeast 307 353 9,900 2,160 Climbing Albuquerque Center
02:07PM 33.2144 -112.0117 103° East 333 383 12,600 2,940 Climbing Albuquerque Center
02:08PM 33.2011 -111.8939 98° East 355 409 16,000 3,120 Climbing Albuquerque Center
02:09PM 33.1881 -111.7464 96° East 374 430 19,000 2,400 Climbing Albuquerque Center
02:10PM 33.1750 -111.6150 97° East 396 456 21,000 1,500 Climbing Albuquerque Center
02:11PM 33.1586 -111.4839 98° East 400 460 22,100 1,560 Climbing Albuquerque Center
02:12PM 33.1244 -111.3494 107° East 422 486 24,300 2,160 Climbing Albuquerque Center
02:13PM 33.0914 -111.2128 106° East 427 491 26,600 1,980 Climbing Albuquerque Center
02:14PM 33.0597 -111.0733 105° East 436 502 28,500 1,740 Climbing Albuquerque Center
02:15PM 33.0269 -110.9300 105° East 446 513 30,200 1,860 Climbing Albuquerque Center
02:16PM 32.9847 -110.7569 106° East 451 519 32,400 2,040 Climbing Albuquerque Center
02:17PM 32.9517 -110.6169 106° East 451 519 34,400 1,440 Climbing Albuquerque Center
02:18PM 32.9183 -110.4769 106° East 445 512 35,400 900 Climbing Albuquerque Center
02:19PM 32.8831 -110.3325 106° East 450 518 36,300 1,200 Climbing Albuquerque Center
02:20PM 32.8469 -110.1883 107° East 454 522 37,900 1,020 Climbing Albuquerque Center
02:21PM 32.8122 -110.0458 106° East 454 522 38,500 540 Climbing Albuquerque Center
02:22PM 32.7683 -109.8697 106° East 460 529 39,100 240 Climbing Albuquerque Center
02:23PM 32.7297 -109.7211 107° East 469 540 39,000 -60 Descending Albuquerque Center
02:24PM 32.6925 -109.5742 107° East 469 540 39,000  Level Albuquerque Center
02:25PM 32.6547 -109.4278 107° East 469 540 39,000  Level Albuquerque Center
02:26PM 32.6178 -109.2831 107° East 468 539 39,000  Level Albuquerque Center
02:27PM 32.5822 -109.1381 106° East 466 536 39,000  Level Albuquerque Center
02:28PM 32.5469 -108.9903 106° East 467 537 39,000  Level Albuquerque Center
02:29PM 32.5081 -108.8128 105° East 467 537 39,000  Level Albuquerque Center
02:30PM 32.4744 -108.6647 105° East 468 539 39,000  Level Albuquerque Center
02:31PM 32.4414 -108.5161 105° East 468 539 39,000  Level Albuquerque Center
02:32PM 32.4044 -108.3572 105° East 471 542 39,000  Level Albuquerque Center
02:33PM 32.3706 -108.2081 105° East 471 542 39,000  Level Albuquerque Center
02:34PM 32.3356 -108.0592 106° East 471 542 39,000  Level Albuquerque Center
02:35PM 32.3017 -107.9114 105° East 471 542 39,000  Level Albuquerque Center
02:37PM 32.2683 -107.7664 105° East 465 535 39,000  Level Albuquerque Center
02:38PM 32.2264 -107.5933 106° East 463 533 39,000  Level Albuquerque Center
02:39PM 32.1944 -107.4536 105° East 463 533 39,000  Level Albuquerque Center
02:40PM 32.1581 -107.2981 105° East 473 544 39,000  Level Albuquerque Center
02:41PM 32.1228 -107.1503 106° East 474 545 39,000  Level Albuquerque Center
02:42PM 32.0878 -107.0028 106° East 474 545 39,000  Level Albuquerque Center
02:43PM 32.0447 -106.8242 106° East 474 545 39,000  Level Albuquerque Center
02:44PM 32.0081 -106.6750 106° East 475 547 39,000  Level Albuquerque Center
02:45PM 31.9700 -106.5256 107° East 476 548 39,000  Level Albuquerque Center
02:46PM 31.9325 -106.3769 107° East 476 548 39,000  Level Albuquerque Center
02:47PM 31.8928 -106.2108 106° East 489 563 39,000  Level Albuquerque Center
02:48PM 31.8506 -106.0481 107° East 483 556 39,000  Level Albuquerque Center
02:49PM 31.8119 -105.8967 107° East 483 556 39,000  Level Albuquerque Center
02:50PM 31.7728 -105.7469 107° East 482 555 39,000  Level Albuquerque Center
02:51PM 31.7317 -105.5836 106° East 483 556 39,000  Level Albuquerque Center
02:52PM 31.6939 -105.4311 106° East 484 557 39,000  Level Albuquerque Center
02:53PM 31.6589 -105.2953 107° East 486 559 39,000  Level Albuquerque Center
02:54PM 31.6181 -105.1406 107° East 491 565 39,000  Level Albuquerque Center
02:55PM 31.5714 -104.9550 106° East 492 566 39,000  Level Albuquerque Center
02:56PM 31.5342 -104.8006 106° East 492 566 39,000  Level Albuquerque Center
02:57PM 31.4931 -104.6461 107° East 493 567 39,000  Level Albuquerque Center
02:58PM 31.4508 -104.4886 107° East 503 579 39,000  Level Albuquerque Center
02:59PM 31.4086 -104.3311 107° East 506 582 39,000  Level Albuquerque Center
03:00PM 31.3681 -104.1772 107° East 503 579 39,000  Level Albuquerque Center
03:01PM 31.3261 -104.0256 108° East 497 572 39,000 -60 Level Albuquerque Center
03:02PM 31.2853 -103.8744 108° East 494 568 38,900 240 Descending Albuquerque Center
03:03PM 31.2364 -103.6903 107° East 494 568 39,600 480 Climbing Albuquerque Center
03:04PM 31.1933 -103.5358 108° East 495 570 40,000 180 Climbing Albuquerque Center
03:05PM 31.1500 -103.3797 108° East 504 580 40,000  Level Albuquerque Center
03:06PM 31.1064 -103.2261 108° East 504 580 40,000  Level Albuquerque Center
03:07PM 31.0636 -103.0717 108° East 504 580 40,000  Level Albuquerque Center
03:08PM 31.0200 -102.9153 108° East 507 583 40,000  Level Albuquerque Center
03:09PM 30.9681 -102.7297 108° East 507 583 40,000  Level Albuquerque Center
03:10PM 30.9239 -102.5750 108° East 507 583 40,000  Level Albuquerque Center
03:11PM 30.8800 -102.4186 108° East 509 586 40,000  Level Albuquerque Center
03:12PM 30.8353 -102.2614 108° East 512 589 40,000  Level Albuquerque Center
03:13PM 30.7903 -102.1053 109° East 513 590 40,000  Level Albuquerque Center
03:14PM 30.7564 -101.9808 108° East 514 592 40,000  Level Houston Center
03:15PM 30.7108 -101.8253 109° East 513 590 40,000  Level Houston Center
03:16PM 30.6653 -101.6692 109° East 513 590 40,000  Level Houston Center
03:17PM 30.6164 -101.5011 109° East 514 592 40,000  Level Houston Center
03:18PM 30.5703 -101.3447 109° East 514 592 40,000  Level Houston Center
03:19PM 30.5228 -101.1864 109° East 516 594 40,000  Level Houston Center
03:20PM 30.4767 -101.0253 108° East 522 601 40,000  Level Houston Center
03:21PM 30.4214 -100.8700 112° Southeast 522 601 40,000  Level Houston Center
03:22PM 30.3500 -100.6878 114° Southeast 521 600 40,000 -900 Level Houston Center
03:23PM 30.2908 -100.5353 114° Southeast 520 598 38,200 -2,160 Descending Houston Center
03:24PM 30.2283 -100.3911 117° Southeast 505 581 35,600 -2,580 Descending Houston Center
03:25PM 30.1656 -100.2533 118° Southeast 476 548 33,000 -3,420 Descending Houston Center
03:27PM 30.1019 -100.1186 119° Southeast 464 534 28,600 -3,660 Descending Houston Center
03:28PM 30.0375 -99.9864 119° Southeast 467 537 25,500 -2,700 Descending Houston Center
03:29PM 29.9894 -99.8533 113° Southeast 454 522 23,100 -2,100 Descending Houston Center
03:30PM 29.9750 -99.7133 97° East 444 511 21,200 -1,920 Descending Houston Center
03:31PM 29.9614 -99.5811 97° East 419 482 19,200 -2,100 Descending Houston Center
03:32PM 29.9461 -99.4297 97° East 402 463 17,000 -1,980 Descending Houston Center
03:33PM 29.9319 -99.3083 98° East 385 443 15,200 -1,860 Descending Houston Center
03:33PM 29.9283 -99.2728 97° East 384 442 14,700 -1,920 Descending Houston Center
03:34PM 29.9047 -99.1694 105° East 364 419 13,000 -1,800 Descending Houston Center
03:35PM 29.8747 -99.0869 113° Southeast 356 410 11,500 -1,860 Descending Houston Center
03:35PM 29.8636 -99.0586 114° Southeast 346 398 11,000 -1,500 Descending Houston Center
03:36PM 29.8325 -98.9731 113° Southeast 342 394 10,000 -1,020 Descending Houston Center
03:36PM 29.8169 -98.9581 140° Southeast 318 366 9,900 -600 Descending Houston Center
03:37PM 29.7769 -98.9097 134° Southeast 263 303 9,400 -1,080 Descending Houston Center
03:38PM 29.7275 -98.8481 133° Southeast 258 297 8,100 -1,260 Descending Houston Center
03:39PM 29.6781 -98.7867 133° Southeast 256 295 6,900 -1,200 Descending Houston Center
03:40PM 29.6356 -98.7339 133° Southeast 248 285 5,800 -1,200 Descending Houston Center
03:40PM 29.6281 -98.7253 135° Southeast 252 290 5,600 -780 Descending Houston Center
03:41PM 29.5808 -98.6692 134° Southeast 230 265 4,900 -660 Descending Houston Center
03:41PM 29.5744 -98.6642 146° Southeast 204 235 4,800 -1,320 Descending Houston Center
03:42PM 29.5394 -98.6228 134° Southeast 190 219 3,500 -1,260 Descending Houston Center
03:43PM 29.5017 -98.5783 134° Southeast 198 228 2,500 -540 Descending Houston Center
03:44PM 29.4758 -98.5486 135° Southeast 138 159 2,500 -360 Level Houston Center
03:45PM 29.4867 -98.5067 73° East 150 173 1,800 -840 Descending Houston Center
03:46PM 29.5239 -98.4694 41° Northeast 155 178 800 -900 Descending Houston Center
03:48PM 29.5333 -98.4667 120° Southeast  Level FlightAware Approximate